Time;durP1;ratioP1;P1;durP2;ratioP2;P2;SDS_P1;SDS_P2;PMS_P1;PMS_P2;Temp;Humidity;BMP_temperature;BMP_pressure;BME280_temperature;BME280_humidity;BME280_pressure;Samples;Min_cycle;Max_cycle;Signal;HPM_P1;HPM_P2
2022/09/02 06:01:39;;;;;;;;;;;23.40;52.60;;;;;;5923851;22;19927;-81
2022/09/02 06:04:06;;;;;;;;;;;23.40;52.50;;;;;;5040404;28;20007;-82
2022/09/02 06:06:34;;;;;;;;;;;23.40;52.50;;;;;;5040827;28;19999;-83
2022/09/02 06:09:03;;;;;;;;;;;23.40;52.40;;;;;;5041688;28;19921;-81
2022/09/02 06:11:29;;;;;;;;;;;23.40;52.40;;;;;;5040265;28;19921;-81
2022/09/02 06:13:56;;;;;;;;;;;23.40;52.40;;;;;;5041527;28;20004;-81
2022/09/02 06:16:23;;;;;;;;;;;23.40;52.50;;;;;;5076872;23;19971;-85
2022/09/02 06:18:51;;;;;;;;;;;23.40;52.50;;;;;;5056266;28;20286;-84
2022/09/02 06:21:19;;;;;;;;;;;23.40;52.60;;;;;;5056284;28;19927;-87
2022/09/02 06:23:46;;;;;;;;;;;23.40;52.60;;;;;;5056402;28;19924;-86
2022/09/02 06:26:14;;;;;;;;;;;23.50;52.80;;;;;;5056393;28;20023;-86
2022/09/02 06:28:40;;;;;;;;;;;23.50;52.80;;;;;;5056179;28;20006;-85
2022/09/02 06:31:07;;;;;;;;;;;23.50;52.80;;;;;;5056342;28;20011;-84
2022/09/02 06:33:34;;;;;;;;;;;23.50;52.80;;;;;;5055796;28;19927;-84
2022/09/02 06:36:05;;;;;;;;;;;23.50;52.80;;;;;;5056269;28;19979;-84
2022/09/02 06:38:32;;;;;;;;;;;23.50;52.80;;;;;;5055857;28;20007;-85
2022/09/02 06:40:58;;;;;;;;;;;23.50;52.80;;;;;;5055745;28;19920;-84
2022/09/02 06:43:25;;;;;;;;;;;23.40;52.70;;;;;;5055481;28;20411;-84
2022/09/02 06:45:52;;;;;;;;;;;23.40;52.60;;;;;;5055949;28;19927;-84
2022/09/02 06:48:18;;;;;;;;;;;23.40;52.60;;;;;;5056014;28;20011;-86
2022/09/02 06:50:46;;;;;;;;;;;23.40;52.60;;;;;;5057065;28;20015;-84
2022/09/02 06:53:16;;;;;;;;;;;23.40;52.50;;;;;;5057426;28;20011;-83
2022/09/02 06:55:44;;;;;;;;;;;23.40;52.40;;;;;;5056357;28;19925;-84
2022/09/02 06:58:11;;;;;;;;;;;23.40;52.30;;;;;;5057086;28;19967;-82
2022/09/02 07:00:38;;;;;;;;;;;23.40;52.20;;;;;;5057305;28;19964;-84
2022/09/02 07:05:58;;;;;;;;;;;23.40;52.10;;;;;;5055246;28;19924;-87
2022/09/02 07:11:28;;;;;;;;;;;23.40;51.80;;;;;;5055801;28;19970;-83
2022/09/02 07:13:59;;;;;;;;;;;23.30;51.60;;;;;;5056158;28;19927;-84
2022/09/02 07:16:25;;;;;;;;;;;23.30;51.60;;;;;;5057368;28;20371;-84
2022/09/02 07:18:52;;;;;;;;;;;23.40;51.50;;;;;;5058372;28;20455;-81
2022/09/02 07:21:19;;;;;;;;;;;23.40;51.40;;;;;;5060270;28;19988;-81
2022/09/02 07:23:45;;;;;;;;;;;23.30;51.30;;;;;;5060295;28;19960;-81
2022/09/02 07:26:12;;;;;;;;;;;23.40;51.30;;;;;;5062430;28;20012;-81
2022/09/02 07:28:41;;;;;;;;;;;23.30;51.30;;;;;;5064841;28;19928;-81
2022/09/02 07:31:08;;;;;;;;;;;23.40;51.30;;;;;;5060531;28;20375;-81
2022/09/02 07:33:35;;;;;;;;;;;23.40;51.30;;;;;;5063068;28;19967;-81
2022/09/02 07:36:03;;;;;;;;;;;23.40;51.20;;;;;;5064432;28;19927;-80
2022/09/02 07:38:30;;;;;;;;;;;23.40;51.20;;;;;;5061981;28;19920;-80
2022/09/02 07:40:58;;;;;;;;;;;23.40;51.20;;;;;;5060643;28;19971;-79
2022/09/02 07:43:26;;;;;;;;;;;23.40;51.20;;;;;;5060850;28;20015;-80
2022/09/02 07:45:54;;;;;;;;;;;23.40;51.20;;;;;;5058864;28;19920;-76
2022/09/02 07:48:21;;;;;;;;;;;23.40;51.10;;;;;;5054046;28;19928;-75
2022/09/02 17:00:07;;;;;;;;;;;23.70;53.90;;;;;;5106649;22;19921;-82
2022/09/02 17:02:34;;;;;;;;;;;23.60;53.90;;;;;;5059245;28;19920;-82
2022/09/02 17:05:00;;;;;;;;;;;23.70;54.00;;;;;;5059386;28;19920;-83
2022/09/02 17:07:27;;;;;;;;;;;23.70;54.10;;;;;;5060321;28;19971;-82
2022/09/02 17:09:54;;;;;;;;;;;23.70;54.30;;;;;;5060381;28;19921;-81
2022/09/02 17:12:20;;;;;;;;;;;23.70;54.40;;;;;;5113584;22;20019;-84
2022/09/02 17:14:47;;;;;;;;;;;23.70;54.50;;;;;;5057896;28;19927;-82
2022/09/02 17:17:16;;;;;;;;;;;23.70;54.70;;;;;;5055634;28;19952;-78
2022/09/02 17:19:42;;;;;;;;;;;23.70;55.00;;;;;;5054780;28;20406;-79
2022/09/02 17:22:09;;;;;;;;;;;23.70;55.00;;;;;;5055014;28;20331;-79
2022/09/02 17:24:37;;;;;;;;;;;23.70;55.00;;;;;;5055114;28;20007;-79
2022/09/02 17:27:04;;;;;;;;;;;23.70;55.00;;;;;;5056161;28;19921;-79
2022/09/02 17:29:31;;;;;;;;;;;23.70;55.00;;;;;;5058952;28;20003;-79
2022/09/02 17:31:57;;;;;;;;;;;23.70;55.00;;;;;;5058670;28;19956;-80
2022/09/02 17:34:26;;;;;;;;;;;23.70;55.10;;;;;;5058513;28;19968;-80
2022/09/02 17:36:53;;;;;;;;;;;23.70;55.30;;;;;;5058487;28;20355;-79
2022/09/02 17:39:20;;;;;;;;;;;23.70;55.40;;;;;;5058755;28;19932;-80
2022/09/02 17:41:56;;;;;;;;;;;23.70;55.50;;;;;;5058363;28;20384;-78
2022/09/02 17:44:24;;;;;;;;;;;23.70;55.60;;;;;;5058883;28;19924;-80
2022/09/02 17:46:51;;;;;;;;;;;23.70;55.70;;;;;;5059714;28;20011;-79
2022/09/02 17:49:19;;;;;;;;;;;23.70;55.80;;;;;;5061427;28;20011;-79
2022/09/02 17:51:47;;;;;;;;;;;23.70;55.90;;;;;;5059550;28;20390;-78
2022/09/02 17:54:14;;;;;;;;;;;23.70;56.50;;;;;;5056232;28;20372;-78
2022/09/02 17:57:03;;;;;;;;;;;23.70;56.00;;;;;;5056506;28;19960;-78
2022/09/02 17:59:36;;;;;;;;;;;23.70;56.20;;;;;;5056472;28;19925;-78
2022/09/02 18:02:27;;;;;;;;;;;23.70;56.30;;;;;;5056085;28;19921;-78
2022/09/02 18:04:59;;;;;;;;;;;23.70;56.40;;;;;;5046083;28;19964;-78
2022/09/02 18:07:32;;;;;;;;;;;23.70;56.60;;;;;;5056515;28;19928;-78
2022/09/02 18:09:59;;;;;;;;;;;23.70;56.80;;;;;;5057748;28;20249;-78
2022/09/02 18:12:26;;;;;;;;;;;23.70;56.90;;;;;;5056403;28;19967;-77
2022/09/02 18:14:56;;;;;;;;;;;23.70;57.00;;;;;;5056120;28;19920;-77
2022/09/02 18:17:27;;;;;;;;;;;23.70;57.20;;;;;;5057702;28;19979;-79
2022/09/02 18:19:58;;;;;;;;;;;23.70;57.30;;;;;;5056732;28;20372;-78
2022/09/02 18:22:35;;;;;;;;;;;23.70;57.50;;;;;;5056698;28;19920;-78
2022/09/02 18:25:09;;;;;;;;;;;23.70;57.60;;;;;;5057192;28;19920;-78
2022/09/02 18:27:40;;;;;;;;;;;23.70;58.00;;;;;;5057591;28;20015;-78
2022/09/02 18:30:08;;;;;;;;;;;23.70;58.00;;;;;;5057196;28;19920;-79
2022/09/02 18:32:57;;;;;;;;;;;23.70;58.10;;;;;;5057470;28;19983;-78
2022/09/02 18:35:32;;;;;;;;;;;23.70;58.40;;;;;;5052922;28;20439;-78
2022/09/02 18:38:06;;;;;;;;;;;23.70;58.50;;;;;;5058578;28;19927;-80
2022/09/02 18:40:37;;;;;;;;;;;23.70;58.70;;;;;;5061256;28;19984;-80
2022/09/02 18:43:07;;;;;;;;;;;23.70;58.90;;;;;;5060709;28;19927;-79
2022/09/02 18:45:38;;;;;;;;;;;23.70;59.00;;;;;;5056586;28;19924;-77
2022/09/02 18:48:07;;;;;;;;;;;23.70;59.20;;;;;;5056116;28;19921;-77
2022/09/02 18:50:37;;;;;;;;;;;23.70;60.00;;;;;;5055509;28;20303;-78
2022/09/02 18:53:07;;;;;;;;;;;23.70;59.70;;;;;;5055296;28;20018;-76
2022/09/02 18:55:35;;;;;;;;;;;23.70;59.70;;;;;;5055041;28;19921;-76
2022/09/02 18:58:06;;;;;;;;;;;23.70;59.70;;;;;;5055315;28;19927;-77
2022/09/02 19:00:36;;;;;;;;;;;23.70;59.70;;;;;;5054957;28;20383;-76
2022/09/02 19:03:05;;;;;;;;;;;23.70;59.80;;;;;;5054873;28;20372;-77
2022/09/02 19:05:34;;;;;;;;;;;23.70;60.20;;;;;;5054885;28;20330;-76
2022/09/02 19:10:56;;;;;;;;;;;23.70;60.70;;;;;;5039386;28;20353;-77
2022/09/02 19:13:22;;;;;;;;;;;23.70;60.90;;;;;;5054581;28;19971;-78
2022/09/02 19:15:49;;;;;;;;;;;23.70;61.20;;;;;;5054954;28;20003;-77
2022/09/02 19:18:16;;;;;;;;;;;23.70;61.40;;;;;;5054960;28;19960;-77
2022/09/02 19:20:42;;;;;;;;;;;23.70;61.70;;;;;;5054837;28;19927;-77
2022/09/02 19:23:11;;;;;;;;;;;23.70;61.80;;;;;;5054700;28;19927;-76
2022/09/02 19:25:37;;;;;;;;;;;23.70;62.00;;;;;;5054744;28;19960;-76
2022/09/02 19:28:06;;;;;;;;;;;23.70;62.20;;;;;;5054808;28;20338;-76
2022/09/02 19:30:35;;;;;;;;;;;23.60;62.30;;;;;;5054337;28;20349;-76
2022/09/02 19:33:03;;;;;;;;;;;23.60;62.50;;;;;;5054596;28;20015;-76
2022/09/02 19:35:31;;;;;;;;;;;23.60;62.70;;;;;;5054553;28;20009;-76
2022/09/02 19:37:58;;;;;;;;;;;23.60;62.90;;;;;;5054569;28;19921;-77
2022/09/02 19:40:26;;;;;;;;;;;23.60;63.00;;;;;;5054502;28;19927;-76
2022/09/02 19:42:54;;;;;;;;;;;23.60;63.30;;;;;;5054123;28;20008;-77
2022/09/02 19:45:22;;;;;;;;;;;23.60;63.40;;;;;;5054126;28;19974;-77
2022/09/02 19:47:49;;;;;;;;;;;23.60;63.60;;;;;;5054450;28;19920;-76
2022/09/02 19:50:16;;;;;;;;;;;23.60;63.80;;;;;;5053525;28;19921;-76
2022/09/02 19:52:43;;;;;;;;;;;23.70;64.00;;;;;;5054198;28;19921;-77
2022/09/02 19:55:11;;;;;;;;;;;23.60;64.10;;;;;;5054222;28;19921;-76
2022/09/02 19:57:38;;;;;;;;;;;23.60;64.30;;;;;;5053911;28;20301;-76
2022/09/02 20:00:06;;;;;;;;;;;23.60;64.50;;;;;;5053868;28;20387;-76
2022/09/02 20:02:34;;;;;;;;;;;23.60;64.70;;;;;;5054164;28;19921;-77
2022/09/02 20:05:00;;;;;;;;;;;23.60;64.80;;;;;;5053874;28;20399;-76
2022/09/02 20:07:27;;;;;;;;;;;23.60;65.00;;;;;;5053999;28;19920;-76
2022/09/02 20:09:54;;;;;;;;;;;23.60;65.20;;;;;;5054098;28;19921;-77
2022/09/02 20:12:21;;;;;;;;;;;23.60;65.50;;;;;;5053847;28;19947;-77
2022/09/02 20:14:47;;;;;;;;;;;23.60;65.60;;;;;;5053947;28;20019;-77
2022/09/02 20:17:18;;;;;;;;;;;23.60;65.70;;;;;;5053996;28;20011;-77
2022/09/02 20:19:46;;;;;;;;;;;23.60;65.60;;;;;;5055118;28;20233;-77
2022/09/02 20:22:13;;;;;;;;;;;23.60;65.60;;;;;;5053869;28;19927;-77
2022/09/02 20:24:40;;;;;;;;;;;23.60;65.70;;;;;;5053609;28;20372;-76
2022/09/02 20:27:13;;;;;;;;;;;23.60;66.00;;;;;;5053927;28;20016;-76
2022/09/02 20:29:48;;;;;;;;;;;23.60;66.20;;;;;;5053582;28;19928;-77
2022/09/02 20:32:19;;;;;;;;;;;23.60;67.10;;;;;;5054313;28;19920;-78
2022/09/02 20:34:55;;;;;;;;;;;23.60;66.50;;;;;;5054273;28;20276;-75
2022/09/02 20:37:28;;;;;;;;;;;23.60;66.70;;;;;;5053906;28;20287;-75
2022/09/02 20:40:10;;;;;;;;;;;23.60;66.90;;;;;;5053822;28;20299;-75
2022/09/02 20:42:46;;;;;;;;;;;23.60;66.90;;;;;;5045037;28;20358;-75
2022/09/02 20:45:15;;;;;;;;;;;23.60;67.10;;;;;;5053775;28;19927;-75
2022/09/02 20:47:48;;;;;;;;;;;23.60;67.20;;;;;;5053677;28;19927;-75
2022/09/02 20:50:30;;;;;;;;;;;23.50;67.20;;;;;;5053734;28;19927;-75
2022/09/02 20:53:04;;;;;;;;;;;23.50;67.20;;;;;;5044769;28;19921;-74
2022/09/02 20:55:35;;;;;;;;;;;23.50;67.40;;;;;;5053648;28;19949;-73
2022/09/02 20:58:16;;;;;;;;;;;23.50;67.50;;;;;;5053696;28;19951;-73
2022/09/02 21:00:47;;;;;;;;;;;23.50;67.60;;;;;;5053640;28;19959;-73
2022/09/02 21:03:16;;;;;;;;;;;23.50;67.60;;;;;;5056665;28;19925;-74
2022/09/02 21:05:47;;;;;;;;;;;23.50;67.70;;;;;;5057476;28;19974;-74
2022/09/02 21:08:21;;;;;;;;;;;23.50;67.80;;;;;;5057457;28;19959;-74
2022/09/02 21:10:50;;;;;;;;;;;23.50;67.80;;;;;;5057409;28;19920;-74
2022/09/02 21:13:20;;;;;;;;;;;23.50;67.90;;;;;;5056917;28;19921;-74
2022/09/02 21:15:48;;;;;;;;;;;23.50;67.90;;;;;;5057520;28;19921;-73
2022/09/02 21:18:18;;;;;;;;;;;23.50;68.00;;;;;;5057196;28;19928;-73
2022/09/02 21:20:47;;;;;;;;;;;23.50;68.00;;;;;;5057163;28;19921;-73
2022/09/02 21:23:20;;;;;;;;;;;23.50;68.10;;;;;;5057088;28;20278;-74
2022/09/02 21:25:51;;;;;;;;;;;23.50;68.10;;;;;;5057159;28;19920;-73
2022/09/02 21:28:18;;;;;;;;;;;23.50;68.20;;;;;;5057097;28;19921;-73
2022/09/02 21:30:47;;;;;;;;;;;23.50;68.20;;;;;;5056680;28;20431;-74
2022/09/02 21:33:15;;;;;;;;;;;23.50;68.20;;;;;;5056565;28;20415;-74
2022/09/02 21:35:42;;;;;;;;;;;23.40;68.20;;;;;;5056804;28;19924;-74
2022/09/02 21:38:10;;;;;;;;;;;23.40;68.20;;;;;;5056499;28;20391;-74
2022/09/02 21:40:44;;;;;;;;;;;23.40;68.20;;;;;;5057381;28;19927;-74
2022/09/02 21:43:17;;;;;;;;;;;23.40;68.20;;;;;;5057022;28;19921;-74
2022/09/02 21:45:46;;;;;;;;;;;23.40;68.20;;;;;;5056717;28;19927;-74
2022/09/02 21:48:20;;;;;;;;;;;23.40;68.20;;;;;;5056681;28;19921;-73
2022/09/02 21:50:51;;;;;;;;;;;23.40;68.20;;;;;;5056620;28;19921;-73
2022/09/02 21:53:21;;;;;;;;;;;23.40;68.30;;;;;;5056226;28;19921;-74
2022/09/02 21:55:56;;;;;;;;;;;23.40;68.30;;;;;;5057022;28;19920;-77
2022/09/02 21:58:30;;;;;;;;;;;23.40;68.30;;;;;;5056481;28;19920;-77
2022/09/02 22:01:00;;;;;;;;;;;23.40;68.30;;;;;;5056675;28;19921;-75
2022/09/02 22:03:35;;;;;;;;;;;23.40;69.10;;;;;;5056501;28;19921;-75
2022/09/02 22:06:07;;;;;;;;;;;23.40;68.40;;;;;;5056346;28;19925;-76
2022/09/02 22:08:38;;;;;;;;;;;23.40;68.30;;;;;;5056347;28;19921;-75
2022/09/02 22:11:09;;;;;;;;;;;23.40;68.40;;;;;;5055835;28;20368;-75
2022/09/02 22:13:39;;;;;;;;;;;23.40;68.40;;;;;;5055295;28;19929;-76
2022/09/02 22:16:12;;;;;;;;;;;23.40;68.40;;;;;;5055745;28;20269;-75
2022/09/02 22:18:40;;;;;;;;;;;23.40;68.50;;;;;;5055823;28;19931;-76
2022/09/02 22:21:15;;;;;;;;;;;23.40;68.40;;;;;;5055726;28;19920;-75
2022/09/02 22:23:43;;;;;;;;;;;23.40;68.40;;;;;;5056006;28;19970;-75
2022/09/02 22:26:19;;;;;;;;;;;23.40;68.50;;;;;;5055999;28;19927;-75
2022/09/02 22:28:48;;;;;;;;;;;23.40;68.50;;;;;;5055964;28;19920;-75
2022/09/02 22:31:16;;;;;;;;;;;23.40;68.40;;;;;;5055507;28;19964;-75
2022/09/02 22:33:47;;;;;;;;;;;23.40;68.50;;;;;;5055818;28;19927;-75
2022/09/02 22:36:23;;;;;;;;;;;23.30;68.40;;;;;;5055718;28;19990;-75
2022/09/02 22:38:50;;;;;;;;;;;23.30;68.40;;;;;;5055502;28;20390;-75
2022/09/02 22:41:23;;;;;;;;;;;23.40;68.50;;;;;;5055651;28;19921;-76
2022/09/02 22:43:53;;;;;;;;;;;23.30;68.40;;;;;;5055325;28;19921;-76
2022/09/02 22:54:43;;;;;;;;;;;23.30;68.40;;;;;;5055162;28;20301;-74
2022/09/02 22:57:13;;;;;;;;;;;23.30;68.40;;;;;;5055366;28;19928;-74
2022/09/02 22:59:47;;;;;;;;;;;23.30;68.40;;;;;;5055352;28;20003;-75
2022/09/02 23:02:20;;;;;;;;;;;23.30;68.50;;;;;;5055296;28;19921;-75
2022/09/02 23:04:53;;;;;;;;;;;23.30;68.50;;;;;;5055248;28;19920;-75
2022/09/02 23:07:20;;;;;;;;;;;23.30;68.50;;;;;;5055193;28;20005;-75
2022/09/02 23:09:48;;;;;;;;;;;23.30;68.40;;;;;;5055095;28;20028;-74
2022/09/02 23:12:27;;;;;;;;;;;23.30;69.20;;;;;;5083108;22;19978;-79
2022/09/02 23:15:07;;;;;;;;;;;23.30;68.40;;;;;;5071427;28;19960;-80
2022/09/02 23:17:36;;;;;;;;;;;23.30;68.40;;;;;;5062160;28;19924;-80
2022/09/02 23:20:06;;;;;;;;;;;23.30;68.40;;;;;;5061753;28;19967;-80
2022/09/02 23:22:40;;;;;;;;;;;23.30;68.40;;;;;;5061912;28;19920;-80
